Beaupre, Canada
Current Conditions -  °F | °C
As of 5:00 AM on Saturday 22 Nov 2014 (Local Time) from CYQB Reporting Station
Few Clouds Few Clouds  
Wind Chill:   Ceiling: Unl
Heat Index:   Visibility: 15mi
Dew Point:   Wind: 2mph
Humidity: 85%   Direction: NA
Pressure: 30.19"   Gusts: NA
Location:  47.05°N, 70.89°W
Report Text: CYQB 221000Z VRB02KT 15SM FEW050 FEW100 M15/M17 A3019 RMK SC1AC1 SC TR SLP231
Loading
Personal Weather Stations






























Interactive Weather Map New forecast layout! Learn more

10-Day Weather Forecast

Advertisements
Track Severe Weather on mobile